Latest Weather Observations for Clermont Airport

IDQ60801

Issued at 12:02 pm EST Wednesday 2 September 2015 (issued every 30 minutes, with the page automatically refreshed every 10 minutes)

About weather observations | Map of weather stations | Latest weather observations for QLD | Other Formats
Station Details ID: 035124 Name: CLERMONT AIRPORT Lat: -22.78 Lon: 147.62 Height: 270.27 m
Data from the previous 72 hours. | See also: Recent months at Clermont Airport
Date/Time
EST
Temp
°C
App
Temp
°C
Dew
Point
Rel
Hum
%
Delta-T
°C
Wind Press
QNH
hPa
Press
MSL
hPa
Rain
since 9 am
mm
Dir
 
Spd
km/h
Gust
km/h
Spd
kts
Gust
kts
02/12:00pm 27.9 26.2 14.8 44 8.0 NNW 17 22 9 12 - - -
02/11:30am 27.0 25.3 15.7 50 7.0 N 19 28 10 15 1017.3 1016.4 0.0
02/11:00am 27.2 25.6 16.5 52 6.7 NNW 20 30 11 16 1018.1 1017.1 0.0
02/10:30am 25.0 23.5 16.7 60 5.2 NNW 20 28 11 15 1018.5 1017.5 0.0
02/10:00am 24.6 23.6 16.6 61 5.0 NNW 17 26 9 14 1018.8 1017.8 0.0
02/09:30am 23.2 21.3 16.7 67 4.0 NNW 22 32 12 17 1019.0 1018.0 0.0
02/09:00am 22.0 22.6 16.9 73 3.1 N 9 17 5 9 1019.0 1018.0 0.0
02/08:30am 19.4 20.7 14.2 72 3.0 CALM 0 0 0 0 1019.0 1018.0 0.0
02/08:00am 17.3 18.3 13.2 77 2.3 CALM 0 0 0 0 1018.9 1017.9 0.0
02/07:30am 16.1 16.4 12.1 77 2.2 SSE 2 6 1 3 1018.6 1017.6 0.0
02/07:00am 14.8 15.0 10.4 75 2.3 CALM 0 0 0 0 1018.3 1017.3 0.0
02/06:30am 14.0 13.7 10.2 78 2.0 SSW 2 4 1 2 1018.1 1017.1 0.0
02/06:00am 12.7 12.7 9.9 83 1.5 CALM 0 0 0 0 1017.7 1016.8 0.0
02/05:30am 12.8 12.7 9.3 79 1.8 CALM 0 0 0 0 1017.4 1016.5 0.0
02/05:00am 12.2 11.8 8.1 76 2.0 CALM 0 0 0 0 1017.3 1016.4 0.0
02/04:30am 12.7 12.2 7.8 72 2.4 CALM 0 0 0 0 1017.1 1016.2 0.0
02/04:00am 13.6 12.8 8.0 69 2.8 S 2 4 1 2 1017.0 1016.1 0.0
02/03:30am 13.8 13.5 8.8 72 2.6 CALM 0 0 0 0 1017.0 1016.1 0.0
02/03:00am 12.4 11.2 7.9 74 2.2 SW 4 4 2 2 1017.0 1016.1 0.0
02/02:30am 11.9 11.3 7.4 74 2.2 CALM 0 0 0 0 1016.8 1015.9 0.0
02/02:00am 11.9 11.0 7.8 76 2.0 WSW 2 4 1 2 1016.6 1015.7 0.0
02/01:30am 11.9 11.3 7.6 75 2.1 CALM 0 0 0 0 1016.5 1015.6 0.0
02/01:00am 12.4 11.9 7.7 73 2.3 CALM 0 0 0 0 1016.6 1015.7 0.0
02/12:30am 12.8 12.4 8.1 73 2.4 CALM 0 0 0 0 1016.5 1015.6 0.0
02/12:00am 13.0 11.9 8.3 73 2.4 WSW 4 6 2 3 1016.5 1015.6 0.0
 
Date/Time
EST
Temp
°C
App
Temp
°C
Dew
Point
Rel
Hum
%
Delta-T
°C
Wind Press
QNH
hPa
Press
MSL
hPa
Rain
since 9 am
mm
Dir
 
Spd
km/h
Gust
km/h
Spd
kts
Gust
kts
01/11:30pm 13.4 12.5 7.6 68 2.9 WSW 2 6 1 3 1016.5 1015.6 0.0
01/11:00pm 15.5 14.8 6.8 56 4.3 CALM 0 0 0 0 1016.5 1015.6 0.0
01/10:30pm 15.2 14.1 6.7 57 4.2 NE 2 2 1 1 1016.4 1015.5 0.0
01/10:00pm 16.2 15.0 6.6 53 4.8 ESE 2 7 1 4 1016.3 1015.4 0.0
01/09:30pm 16.3 15.7 7.5 56 4.5 CALM 0 0 0 0 1016.2 1015.3 0.0
01/09:00pm 17.1 16.5 7.5 53 4.9 CALM 0 0 0 0 1016.0 1015.1 0.0
01/08:30pm 17.6 17.0 7.6 52 5.1 CALM 0 0 0 0 1015.7 1014.7 0.0
01/08:00pm 17.5 16.6 7.8 53 5.0 SSW 2 4 1 2 1015.3 1014.3 0.0
01/07:30pm 17.9 17.4 7.9 52 5.2 CALM 0 2 0 1 1014.8 1013.8 0.0
01/07:00pm 20.5 19.8 6.8 41 7.0 CALM 0 0 0 0 1014.3 1013.3 0.0
01/06:30pm 23.3 22.4 6.1 33 8.9 CALM 0 0 0 0 1013.8 1012.9 0.0
01/06:00pm 24.5 23.5 5.8 30 9.7 CALM 0 2 0 1 1013.6 1012.7 0.0
01/05:30pm 27.2 25.1 6.0 26 11.2 SSW 6 9 3 5 1013.4 1012.5 0.0
01/05:00pm 28.2 27.0 6.3 25 11.7 NW 2 7 1 4 1013.3 1012.4 0.0
01/04:30pm 27.8 25.2 6.0 25 11.5 SSW 9 17 5 9 1013.2 1012.3 0.0
01/04:00pm 28.6 27.1 6.7 25 11.8 ENE 4 9 2 5 1013.3 1012.4 0.0
01/03:30pm 27.6 25.3 5.8 25 11.5 NNW 7 15 4 8 1013.4 1012.5 0.0
01/03:00pm 28.0 25.8 6.2 25 11.6 NNW 7 15 4 8 1013.8 1012.9 0.0
01/02:30pm 27.2 23.8 6.0 26 11.2 NW 13 22 7 12 1014.2 1013.2 0.0
01/02:00pm 27.2 25.3 6.6 27 11.0 ESE 6 9 3 5 1014.7 1013.7 0.0
01/01:30pm 26.6 24.4 6.1 27 10.8 WNW 7 15 4 8 1015.5 1014.5 0.0
01/01:00pm 25.4 23.1 5.6 28 10.2 N 7 15 4 8 1016.0 1015.1 0.0
01/12:30pm 25.6 23.3 5.8 28 10.3 ENE 7 17 4 9 1016.6 1015.7 0.0
01/12:00pm 24.7 22.7 6.4 31 9.6 WSW 6 9 3 5 1017.4 1016.5 0.0
01/11:30am 23.5 21.9 8.0 37 8.3 S 6 13 3 7 1018.2 1017.2 0.0
01/11:00am 22.8 21.6 8.1 39 7.8 WSW 4 9 2 5 1018.8 1017.8 0.0
01/10:30am 21.8 20.1 6.1 36 8.0 S 4 9 2 5 1019.4 1018.5 0.0
01/10:00am 21.1 18.4 3.8 32 8.4 SSE 7 17 4 9 1019.6 1018.7 0.0
01/09:30am 19.7 17.1 3.0 33 7.9 SE 6 11 3 6 1019.8 1019.3 0.0
01/09:00am 17.9 15.1 3.4 38 6.8 SE 7 15 4 8 1019.9 1019.4 0.0
01/08:30am 16.8 13.5 2.4 38 6.6 SE 9 17 5 9 1019.6 1019.1 0.0
01/08:00am 14.0 11.5 4.0 51 4.6 SSE 6 9 3 5 1019.4 1018.9 0.0
01/07:30am 11.6 9.9 5.7 67 2.8 S 4 6 2 3 1019.3 1018.8 0.0
01/07:00am 8.8 6.5 5.7 81 1.4 SSW 7 9 4 5 1019.0 1018.5 0.0
01/06:30am 6.0 4.0 4.5 90 0.7 SW 4 6 2 3 1018.7 1018.1 0.0
01/06:00am 6.2 5.0 4.5 89 0.7 CALM 0 0 0 0 1018.3 1017.7 0.0
01/05:30am 6.8 5.6 4.8 87 0.9 CALM 0 0 0 0 1017.9 1017.4 0.0
01/05:00am 6.7 5.6 5.0 89 0.8 CALM 0 4 0 2 1017.6 1017.1 0.0
01/04:30am 6.6 4.3 4.6 87 0.9 WSW 6 6 3 3 1017.1 1016.6 0.0
01/04:00am 7.1 5.9 4.8 85 1.0 CALM 0 0 0 0 1017.2 1016.7 0.0
01/03:30am 7.8 6.7 5.3 84 1.1 CALM 0 0 0 0 1017.4 1016.9 0.0
01/03:00am 8.0 6.1 4.9 81 1.4 SW 4 6 2 3 1017.0 1016.5 0.0
01/02:30am 8.0 6.1 5.1 82 1.3 WSW 4 4 2 2 1017.0 1016.5 0.0
01/02:00am 8.1 6.6 5.2 82 1.3 WSW 2 2 1 1 1016.9 1016.4 0.0
01/01:30am 8.0 5.8 5.1 82 1.3 SW 6 7 3 4 1016.9 1016.4 0.0
01/01:00am 8.7 7.2 5.1 78 1.6 W 2 4 1 2 1017.1 1016.6 0.0
01/12:30am 9.2 7.8 5.6 78 1.7 WNW 2 4 1 2 1017.3 1016.8 0.0
01/12:00am 9.2 7.7 5.2 76 1.8 SW 2 6 1 3 1017.3 1016.8 0.0
 
Date/Time
EST
Temp
°C
App
Temp
°C
Dew
Point
Rel
Hum
%
Delta-T
°C
Wind Press
QNH
hPa
Press
MSL
hPa
Rain
since 9 am
mm
Dir
 
Spd
km/h
Gust
km/h
Spd
kts
Gust
kts
31/11:30pm 9.7 8.3 5.5 75 1.9 W 2 6 1 3 1017.2 1016.7 0.0
31/11:00pm 10.2 9.3 6.2 76 1.9 CALM 0 2 0 1 1017.2 1016.7 0.0
31/10:30pm 10.8 9.5 6.2 73 2.2 WSW 2 4 1 2 1017.1 1016.6 0.0
31/10:00pm 11.2 10.3 5.9 70 2.5 CALM 0 0 0 0 1017.2 1016.7 0.0
31/09:30pm 12.0 10.9 5.0 62 3.3 CALM 0 0 0 0 1017.1 1016.6 0.0
31/09:00pm 13.7 12.6 5.3 57 4.0 CALM 0 0 0 0 1017.0 1016.5 0.0
31/08:30pm 14.5 13.3 4.5 51 4.7 CALM 0 0 0 0 1016.8 1016.3 0.0
31/08:00pm 15.7 14.5 4.4 47 5.3 CALM 0 0 0 0 1016.5 1016.0 0.0
31/07:30pm 16.5 15.3 4.5 45 5.7 CALM 0 0 0 0 1016.2 1015.7 0.0
31/07:00pm 19.4 17.2 3.2 34 7.7 SSE 4 6 2 3 1015.8 1015.3 0.0
31/06:30pm 21.8 19.0 2.0 27 9.4 S 6 7 3 4 1015.6 1015.0 0.0
31/06:00pm 23.3 20.3 1.0 23 10.5 S 6 6 3 3 1015.2 1014.6 0.0
31/05:30pm 24.6 21.7 1.5 22 11.0 S 6 11 3 6 1015.1 1014.5 0.0
31/05:00pm 25.0 21.6 1.8 22 11.2 S 9 13 5 7 1014.9 1014.3 0.0
31/04:30pm 25.2 21.3 1.3 21 11.4 SSW 11 19 6 10 1014.7 1014.1 0.0
31/04:00pm 25.7 22.9 1.8 21 11.6 WSW 6 9 3 5 1014.5 1013.9 0.0
31/03:30pm 25.4 22.8 3.4 24 11.0 WNW 6 11 3 6 1014.5 1013.9 0.0
31/03:00pm 25.3 22.8 3.9 25 10.7 NW 6 9 3 5 1015.0 1014.4 0.0
31/02:30pm 24.4 21.8 3.1 25 10.5 SSE 6 15 3 8 1015.6 1015.0 0.0
31/02:00pm 23.8 21.0 3.2 26 10.1 SW 7 15 4 8 1016.3 1015.8 0.0
31/01:30pm 24.6 20.8 3.8 26 10.4 NW 13 20 7 11 1016.5 1016.0 0.0
31/01:00pm 23.3 20.6 3.8 28 9.6 S 7 19 4 10 1017.1 1016.6 0.0
31/12:30pm 22.9 20.1 5.3 32 8.9 NNW 9 20 5 11 1017.6 1017.1 0.0
31/12:00pm 22.0 19.6 5.4 34 8.4 WSW 7 11 4 6 1018.2 1017.6 0.0
31/11:30am 21.3 19.1 6.0 37 7.8 SE 7 15 4 8 1018.7 1018.1 0.0
31/11:00am 20.1 18.0 5.7 39 7.2 SE 6 15 3 8 1019.4 1018.9 0.0
31/10:30am 19.9 17.9 7.0 43 6.6 SE 7 15 4 8 1020.0 1019.5 0.0
31/10:00am 18.1 15.9 6.3 46 5.9 ESE 7 17 4 9 1020.3 1019.8 0.0
31/09:30am 18.1 15.3 6.9 48 5.7 SE 11 17 6 9 1020.0 1019.5 0.0
31/09:00am 16.4 13.4 6.0 50 5.1 SE 11 19 6 10 1020.0 1019.5 0.0
31/08:30am 15.1 12.7 6.9 58 4.1 SSE 9 13 5 7 1019.7 1019.2 0.0
31/08:00am 13.1 10.8 7.3 68 2.9 S 9 13 5 7 1019.7 1019.2 0.0
31/07:30am 11.4 10.2 7.9 79 1.7 SW 4 6 2 3 1019.5 1019.0 0.0
31/07:00am 8.9 8.0 7.8 93 0.5 SSW 2 4 1 2 1019.2 1018.7 0.0
31/06:30am 7.8 6.6 6.3 90 0.7 SSW 2 6 1 3 1018.8 1018.2 0.0
31/06:00am 7.3 5.2 5.9 91 0.6 SW 6 6 3 3 1018.5 1017.9 0.0
31/05:30am 7.4 5.8 6.3 93 0.5 WSW 4 6 2 3 1018.2 1017.6 0.0
31/05:00am 7.4 5.8 6.3 93 0.5 SW 4 6 2 3 1017.8 1017.3 0.0
31/04:30am 7.5 6.3 6.4 93 0.5 NNE 2 4 1 2 1017.5 1017.0 0.0
31/04:00am 8.3 6.9 7.1 92 0.6 SW 4 6 2 3 1017.0 1016.5 0.0
31/03:30am 8.5 7.9 7.4 93 0.5 CALM 0 0 0 0 1017.2 1016.7 0.0
31/03:00am 8.6 8.0 7.4 92 0.6 CALM 0 0 0 0 1017.3 1016.8 0.0
31/02:30am 8.8 7.9 7.6 92 0.6 WSW 2 4 1 2 1017.5 1017.0 0.0
31/02:00am 9.3 8.8 7.9 91 0.7 CALM 0 0 0 0 1017.8 1017.3 0.0
31/01:30am 9.9 9.5 8.3 90 0.8 CALM 0 0 0 0 1018.1 1017.5 0.0
31/01:00am 10.7 10.5 9.0 89 0.9 CALM 0 0 0 0 1018.5 1017.9 0.0
31/12:30am 10.7 10.4 8.8 88 1.0 CALM 0 0 0 0 1018.5 1017.9 0.0
31/12:00am 11.6 11.6 9.7 88 1.0 CALM 0 0 0 0 1018.4 1017.8 0.0
 
Date/Time
EST
Temp
°C
App
Temp
°C
Dew
Point
Rel
Hum
%
Delta-T
°C
Wind Press
QNH
hPa
Press
MSL
hPa
Rain
since 9 am
mm
Dir
 
Spd
km/h
Gust
km/h
Spd
kts
Gust
kts
30/11:30pm 12.0 12.0 9.9 87 1.1 CALM 0 4 0 2 1018.6 1018.0 0.0
30/11:00pm 13.2 13.2 9.8 80 1.8 CALM 0 0 0 0 1018.7 1018.1 0.0
30/10:30pm 13.5 13.7 10.5 82 1.6 CALM 0 0 0 0 1018.7 1018.1 0.0
30/10:00pm 13.7 13.1 10.3 80 1.8 SSW 4 7 2 4 1018.5 1017.9 0.0
30/09:30pm 15.2 14.7 10.8 75 2.4 SSE 4 4 2 2 1018.3 1017.7 0.0
30/09:00pm 16.3 16.3 9.7 65 3.5 CALM 0 0 0 0 1018.1 1017.5 0.0
30/08:30pm 16.7 16.3 9.9 64 3.6 ENE 2 4 1 2 1017.7 1017.2 0.0
30/08:00pm 18.1 16.5 8.9 55 4.8 SSW 7 9 4 5 1017.4 1016.9 0.0
30/07:30pm 19.5 18.1 8.8 50 5.7 SSW 6 7 3 4 1016.9 1016.4 0.0
30/07:00pm 20.7 19.0 8.4 45 6.5 SSW 7 9 4 5 1016.5 1016.0 0.0
30/06:30pm 21.9 20.4 7.0 38 7.7 SW 4 6 2 3 1016.2 1015.7 0.0
30/06:00pm 22.9 20.8 6.6 35 8.5 SW 7 13 4 7 1015.9 1015.4 0.0
30/05:30pm 24.7 22.0 5.5 29 9.9 WSW 9 17 5 9 1015.5 1014.9 0.0
30/05:00pm 25.5 22.4 5.7 28 10.3 WSW 11 17 6 9 1015.2 1014.6 0.0
30/04:30pm 25.3 23.6 7.4 32 9.6 SE 6 13 3 7 1015.0 1014.4 0.0
30/04:00pm 25.4 24.4 8.8 35 9.1 SSW 4 9 2 5 1015.0 1014.4 0.0
30/03:30pm 25.0 23.5 8.5 35 9.0 SW 6 13 3 7 1015.2 1014.6 0.0
30/03:00pm 24.4 23.3 9.9 40 8.0 SW 6 13 3 7 1015.5 1014.9 0.0
30/02:30pm 24.4 22.9 10.7 42 7.7 SE 9 17 5 9 1016.0 1015.5 0.0
30/02:00pm 24.0 22.8 10.3 42 7.6 SSE 7 15 4 8 1016.5 1016.0 0.0
30/01:30pm 23.3 22.5 11.7 48 6.6 WSW 7 19 4 10 1017.2 1016.7 0.0
30/01:00pm 22.1 22.0 13.2 57 5.2 SE 6 11 3 6 1017.8 1017.3 0.0
30/12:30pm 20.9 20.4 12.8 60 4.7 SE 7 13 4 7 1018.4 1017.8 0.0

Other Formats:

Comma delimited format used in spreadsheet applications
http://www.bom.gov.au/fwo/IDQ60801/IDQ60801.94395.axf

JavaScript Object Notation format (JSON) in row-major order
http://www.bom.gov.au/fwo/IDQ60801/IDQ60801.94395.json